Aviation Digital Data Service (ADDS)

Output produced by METARs form (0243 UTC 29 May 2022)
found at http://www.aviationweather.gov/metar/data/
 
Forecast for: EGHI (SOUTHAMPTON WX C, GB)
Text: TAF EGHI 281701Z 2818/2821 02005KT CAVOK
Forecast period: 1800 to 2100 UTC 28 May 2022
Forecast type: FROM: standard forecast or significant change
Winds: from the NNE (20 degrees) at 6 MPH (5 knots; 2.6 m/s)
Visibility: 6 or more miles (10+ km)
Ceiling: unknown
Clouds: missing
Weather: NSW  (no significant weather)

Forecast for: EGHH (BOURNEMOUTH AIRP, GB)
Text: TAF EGHH 282255Z 2900/2902 02003KT CAVOK
Forecast period: 0000 to 0200 UTC 29 May 2022
Forecast type: FROM: standard forecast or significant change
Winds: from the NNE (20 degrees) at 3 MPH (3 knots; 1.5 m/s)
Visibility: 6 or more miles (10+ km)
Ceiling: unknown
Clouds: missing
Weather: NSW  (no significant weather)